sensor_id;sensor_type;location;lat;lon;timestamp;pressure;altitude;pressure_sealevel;temperature;humidity
19112;BME280;9688;51.906;8.376;2023-05-01T00:02:48;101012.50;;;10.27;61.19
19112;BME280;9688;51.906;8.376;2023-05-01T00:05:34;101009.00;;;10.25;60.88
19112;BME280;9688;51.906;8.376;2023-05-01T00:08:19;101007.38;;;10.21;61.28
19112;BME280;9688;51.906;8.376;2023-05-01T00:11:06;101003.91;;;10.19;60.98
19112;BME280;9688;51.906;8.376;2023-05-01T00:13:52;101000.44;;;10.17;61.35
19112;BME280;9688;51.906;8.376;2023-05-01T00:16:38;100988.16;;;10.16;61.25
19112;BME280;9688;51.906;8.376;2023-05-01T00:19:24;100996.16;;;10.14;61.20
19112;BME280;9688;51.906;8.376;2023-05-01T00:22:09;100989.94;;;10.15;60.84
19112;BME280;9688;51.906;8.376;2023-05-01T00:24:55;100983.00;;;10.11;61.22
19112;BME280;9688;51.906;8.376;2023-05-01T00:27:42;100982.25;;;10.08;61.51
19112;BME280;9688;51.906;8.376;2023-05-01T00:30:28;100978.78;;;10.05;60.74
19112;BME280;9688;51.906;8.376;2023-05-01T00:33:13;100976.13;;;10.05;61.64
19112;BME280;9688;51.906;8.376;2023-05-01T00:36:00;100974.41;;;10.04;61.31
19112;BME280;9688;51.906;8.376;2023-05-01T00:38:46;100971.78;;;10.04;60.99
19112;BME280;9688;51.906;8.376;2023-05-01T00:41:33;100967.41;;;10.03;60.87
19112;BME280;9688;51.906;8.376;2023-05-01T00:44:20;100959.63;;;9.99;60.64
19112;BME280;9688;51.906;8.376;2023-05-01T00:47:06;100962.31;;;9.97;61.28
19112;BME280;9688;51.906;8.376;2023-05-01T00:49:53;100957.97;;;9.95;60.70
19112;BME280;9688;51.906;8.376;2023-05-01T00:52:39;100951.84;;;9.94;61.18
19112;BME280;9688;51.906;8.376;2023-05-01T00:55:25;100947.50;;;9.92;60.91
19112;BME280;9688;51.906;8.376;2023-05-01T00:58:11;100944.06;;;9.90;60.99
19112;BME280;9688;51.906;8.376;2023-05-01T01:00:59;100948.53;;;9.88;60.55
19112;BME280;9688;51.906;8.376;2023-05-01T01:03:46;100943.25;;;9.88;60.84
19112;BME280;9688;51.906;8.376;2023-05-01T01:06:35;100938.91;;;9.85;61.09
19112;BME280;9688;51.906;8.376;2023-05-01T01:09:31;100934.66;;;9.81;60.49
19112;BME280;9688;51.906;8.376;2023-05-01T01:12:25;100931.22;;;9.77;60.57
19112;BME280;9688;51.906;8.376;2023-05-01T01:15:15;100932.19;;;9.75;61.00
19112;BME280;9688;51.906;8.376;2023-05-01T01:18:08;100923.53;;;9.70;60.38
19112;BME280;9688;51.906;8.376;2023-05-01T01:21:00;100922.72;;;9.68;60.94
19112;BME280;9688;51.906;8.376;2023-05-01T01:24:07;100915.75;;;9.65;61.12
19112;BME280;9688;51.906;8.376;2023-05-01T01:27:21;100912.41;;;9.60;60.61
19112;BME280;9688;51.906;8.376;2023-05-01T01:33:54;100908.94;;;9.58;61.26
19112;BME280;9688;51.906;8.376;2023-05-01T01:36:48;100908.06;;;9.57;61.14
19112;BME280;9688;51.906;8.376;2023-05-01T01:39:41;100903.72;;;9.56;61.37
19112;BME280;9688;51.906;8.376;2023-05-01T01:42:34;100899.28;;;9.57;62.20
19112;BME280;9688;51.906;8.376;2023-05-01T01:45:21;100896.66;;;9.57;61.51
19112;BME280;9688;51.906;8.376;2023-05-01T01:48:09;100893.06;;;9.59;61.88
19112;BME280;9688;51.906;8.376;2023-05-01T01:50:58;100893.84;;;9.61;61.93
19112;BME280;9688;51.906;8.376;2023-05-01T01:53:50;100883.16;;;9.66;62.00
19112;BME280;9688;51.906;8.376;2023-05-01T01:56:36;100883.16;;;9.66;61.81
19112;BME280;9688;51.906;8.376;2023-05-01T01:59:25;100888.44;;;9.66;61.91
19112;BME280;9688;51.906;8.376;2023-05-01T02:02:13;100884.13;;;9.64;62.09
19112;BME280;9688;51.906;8.376;2023-05-01T02:04:59;100877.16;;;9.61;62.05
19112;BME280;9688;51.906;8.376;2023-05-01T02:07:48;100862.34;;;9.57;62.30
19112;BME280;9688;51.906;8.376;2023-05-01T02:10:35;100868.56;;;9.54;62.74
19112;BME280;9688;51.906;8.376;2023-05-01T02:13:21;100864.22;;;9.53;62.51
19112;BME280;9688;51.906;8.376;2023-05-01T02:16:07;100862.44;;;9.54;62.12
19112;BME280;9688;51.906;8.376;2023-05-01T02:18:54;100865.06;;;9.54;63.03
19112;BME280;9688;51.906;8.376;2023-05-01T02:21:41;100861.50;;;9.55;62.42
19112;BME280;9688;51.906;8.376;2023-05-01T02:24:29;100856.31;;;9.53;62.61
19112;BME280;9688;51.906;8.376;2023-05-01T02:27:20;100851.16;;;9.49;63.21
19112;BME280;9688;51.906;8.376;2023-05-01T02:30:08;100846.84;;;9.45;63.02
19112;BME280;9688;51.906;8.376;2023-05-01T02:32:55;100847.81;;;9.42;63.39
19112;BME280;9688;51.906;8.376;2023-05-01T02:35:41;100841.75;;;9.40;63.43
19112;BME280;9688;51.906;8.376;2023-05-01T02:38:28;100841.84;;;9.37;63.60
19112;BME280;9688;51.906;8.376;2023-05-01T02:41:15;100830.47;;;9.35;63.11
19112;BME280;9688;51.906;8.376;2023-05-01T02:44:02;100833.19;;;9.32;63.82
19112;BME280;9688;51.906;8.376;2023-05-01T02:46:49;100836.72;;;9.31;64.21
19112;BME280;9688;51.906;8.376;2023-05-01T02:49:36;100831.50;;;9.29;64.08
19112;BME280;9688;51.906;8.376;2023-05-01T02:52:23;100826.31;;;9.26;63.67
19112;BME280;9688;51.906;8.376;2023-05-01T02:55:08;100822.91;;;9.23;63.74
19112;BME280;9688;51.906;8.376;2023-05-01T02:57:58;100819.41;;;9.22;63.82
19112;BME280;9688;51.906;8.376;2023-05-01T03:00:44;100810.59;;;9.23;63.97
19112;BME280;9688;51.906;8.376;2023-05-01T03:03:30;100812.34;;;9.23;63.60
19112;BME280;9688;51.906;8.376;2023-05-01T03:06:15;100809.75;;;9.21;63.82
19112;BME280;9688;51.906;8.376;2023-05-01T03:09:02;100805.44;;;9.19;64.33
19112;BME280;9688;51.906;8.376;2023-05-01T03:11:47;100801.09;;;9.18;63.78
19112;BME280;9688;51.906;8.376;2023-05-01T03:14:35;100797.50;;;9.20;63.91
19112;BME280;9688;51.906;8.376;2023-05-01T03:17:21;100804.50;;;9.21;64.30
19112;BME280;9688;51.906;8.376;2023-05-01T03:20:08;100798.34;;;9.21;64.48
19112;BME280;9688;51.906;8.376;2023-05-01T03:22:53;100800.13;;;9.20;63.87
19112;BME280;9688;51.906;8.376;2023-05-01T03:25:39;100798.44;;;9.18;64.88
19112;BME280;9688;51.906;8.376;2023-05-01T03:28:25;100786.16;;;9.16;64.08
19112;BME280;9688;51.906;8.376;2023-05-01T03:31:12;100788.78;;;9.16;64.40
19112;BME280;9688;51.906;8.376;2023-05-01T03:33:58;100777.44;;;9.14;64.30
19112;BME280;9688;51.906;8.376;2023-05-01T03:36:43;100772.22;;;9.13;63.95
19112;BME280;9688;51.906;8.376;2023-05-01T03:39:29;100763.47;;;9.11;64.83
19112;BME280;9688;51.906;8.376;2023-05-01T03:42:15;100768.75;;;9.11;64.62
19112;BME280;9688;51.906;8.376;2023-05-01T03:45:00;100761.75;;;9.10;64.76
19112;BME280;9688;51.906;8.376;2023-05-01T03:47:47;100758.34;;;9.06;65.12
19112;BME280;9688;51.906;8.376;2023-05-01T03:50:32;100767.16;;;9.05;65.01
19112;BME280;9688;51.906;8.376;2023-05-01T03:53:18;100762.75;;;9.06;64.66
19112;BME280;9688;51.906;8.376;2023-05-01T03:56:04;100756.56;;;9.07;64.38
19112;BME280;9688;51.906;8.376;2023-05-01T03:58:50;100757.53;;;9.04;64.72
19112;BME280;9688;51.906;8.376;2023-05-01T04:01:36;100750.50;;;9.03;64.89
19112;BME280;9688;51.906;8.376;2023-05-01T04:04:24;100755.75;;;9.05;64.66
19112;BME280;9688;51.906;8.376;2023-05-01T04:07:12;100750.38;;;9.08;64.20
19112;BME280;9688;51.906;8.376;2023-05-01T04:09:58;100752.06;;;9.10;64.11
19112;BME280;9688;51.906;8.376;2023-05-01T04:12:44;100751.09;;;9.13;64.66
19112;BME280;9688;51.906;8.376;2023-05-01T04:15:30;100751.06;;;9.14;64.82
19112;BME280;9688;51.906;8.376;2023-05-01T04:18:16;100749.22;;;9.16;64.62
19112;BME280;9688;51.906;8.376;2023-05-01T04:21:03;100750.06;;;9.19;64.84
19112;BME280;9688;51.906;8.376;2023-05-01T04:23:48;100749.09;;;9.21;64.73
19112;BME280;9688;51.906;8.376;2023-05-01T04:26:34;100746.34;;;9.26;63.90
19112;BME280;9688;51.906;8.376;2023-05-01T04:29:19;100743.59;;;9.29;64.31
19112;BME280;9688;51.906;8.376;2023-05-01T04:32:05;100740.84;;;9.32;64.34
19112;BME280;9688;51.906;8.376;2023-05-01T04:34:50;100746.06;;;9.33;63.98
19112;BME280;9688;51.906;8.376;2023-05-01T04:37:38;100738.03;;;9.38;63.70
19112;BME280;9688;51.906;8.376;2023-05-01T04:40:24;100745.63;;;9.47;63.58
19112;BME280;9688;51.906;8.376;2023-05-01T04:43:09;100740.94;;;9.57;63.13
19112;BME280;9688;51.906;8.376;2023-05-01T04:45:55;100737.88;;;9.69;63.79
19112;BME280;9688;51.906;8.376;2023-05-01T04:48:40;100726.16;;;9.78;62.88
19112;BME280;9688;51.906;8.376;2023-05-01T04:51:26;100737.19;;;9.91;62.16
19112;BME280;9688;51.906;8.376;2023-05-01T04:54:13;100719.09;;;10.30;61.02
19112;BME280;9688;51.906;8.376;2023-05-01T04:56:59;100732.47;;;10.74;60.41
19112;BME280;9688;51.906;8.376;2023-05-01T04:59:46;100727.22;;;11.20;59.48
19112;BME280;9688;51.906;8.376;2023-05-01T05:02:32;100723.56;;;11.22;59.17
19112;BME280;9688;51.906;8.376;2023-05-01T05:05:17;100721.41;;;11.10;59.59
19112;BME280;9688;51.906;8.376;2023-05-01T05:08:02;100724.25;;;11.05;59.57
19112;BME280;9688;51.906;8.376;2023-05-01T05:10:55;100721.75;;;11.24;59.96
19112;BME280;9688;51.906;8.376;2023-05-01T05:13:41;100727.75;;;11.94;58.39
19112;BME280;9688;51.906;8.376;2023-05-01T05:16:26;100721.88;;;12.67;55.48
19112;BME280;9688;51.906;8.376;2023-05-01T05:19:12;100721.50;;;12.56;55.87
19112;BME280;9688;51.906;8.376;2023-05-01T05:21:58;100719.41;;;12.23;56.60
19112;BME280;9688;51.906;8.376;2023-05-01T05:24:46;100723.75;;;12.05;56.94
19112;BME280;9688;51.906;8.376;2023-05-01T05:27:32;100722.53;;;12.13;57.00
19112;BME280;9688;51.906;8.376;2023-05-01T05:30:21;100719.16;;;12.09;56.98
19112;BME280;9688;51.906;8.376;2023-05-01T05:33:06;100709.72;;;12.02;57.44
19112;BME280;9688;51.906;8.376;2023-05-01T05:35:52;100715.31;;;11.96;57.61
19112;BME280;9688;51.906;8.376;2023-05-01T05:38:38;100718.63;;;12.01;56.84
19112;BME280;9688;51.906;8.376;2023-05-01T05:41:23;100709.81;;;12.00;57.34
19112;BME280;9688;51.906;8.376;2023-05-01T05:44:11;100706.03;;;12.06;57.02
19112;BME280;9688;51.906;8.376;2023-05-01T05:46:57;100710.75;;;12.20;56.47
19112;BME280;9688;51.906;8.376;2023-05-01T05:49:42;100701.66;;;12.25;56.52
19112;BME280;9688;51.906;8.376;2023-05-01T05:52:28;100709.91;;;12.38;56.59
19112;BME280;9688;51.906;8.376;2023-05-01T05:55:14;100706.13;;;12.44;56.18
19112;BME280;9688;51.906;8.376;2023-05-01T05:57:59;100707.88;;;12.45;56.34
19112;BME280;9688;51.906;8.376;2023-05-01T06:00:47;100708.94;;;12.60;56.15
19112;BME280;9688;51.906;8.376;2023-05-01T06:03:32;100710.28;;;12.70;56.20
19112;BME280;9688;51.906;8.376;2023-05-01T06:06:19;100711.47;;;12.82;55.86
19112;BME280;9688;51.906;8.376;2023-05-01T06:09:05;100701.44;;;12.88;56.24
19112;BME280;9688;51.906;8.376;2023-05-01T06:11:52;100702.81;;;12.97;55.38
19112;BME280;9688;51.906;8.376;2023-05-01T06:14:37;100705.97;;;13.05;55.83
19112;BME280;9688;51.906;8.376;2023-05-01T06:17:25;100706.69;;;13.09;55.17
19112;BME280;9688;51.906;8.376;2023-05-01T06:20:12;100700.53;;;13.08;55.80
19112;BME280;9688;51.906;8.376;2023-05-01T06:22:58;100703.03;;;13.11;55.70
19112;BME280;9688;51.906;8.376;2023-05-01T06:25:43;100699.28;;;13.15;55.44
19112;BME280;9688;51.906;8.376;2023-05-01T06:28:29;100703.44;;;13.21;55.10
19112;BME280;9688;51.906;8.376;2023-05-01T06:31:15;100693.50;;;13.26;55.39
19112;BME280;9688;51.906;8.376;2023-05-01T06:34:02;100695.78;;;13.34;55.43
19112;BME280;9688;51.906;8.376;2023-05-01T06:36:47;100697.97;;;13.43;55.16
19112;BME280;9688;51.906;8.376;2023-05-01T06:39:33;100688.63;;;13.53;54.92
19112;BME280;9688;51.906;8.376;2023-05-01T06:42:18;100696.06;;;13.64;54.51
19112;BME280;9688;51.906;8.376;2023-05-01T06:45:06;100687.72;;;13.72;54.20
19112;BME280;9688;51.906;8.376;2023-05-01T06:47:52;100690.91;;;13.96;54.01
19112;BME280;9688;51.906;8.376;2023-05-01T06:50:39;100687.88;;;14.37;53.09
19112;BME280;9688;51.906;8.376;2023-05-01T06:53:24;100688.59;;;14.73;52.86
19112;BME280;9688;51.906;8.376;2023-05-01T06:56:10;100680.03;;;15.16;51.82
19112;BME280;9688;51.906;8.376;2023-05-01T06:58:55;100685.59;;;15.27;51.88
19112;BME280;9688;51.906;8.376;2023-05-01T07:01:40;100682.59;;;15.33;51.77
19112;BME280;9688;51.906;8.376;2023-05-01T07:04:25;100692.44;;;15.47;51.44
19112;BME280;9688;51.906;8.376;2023-05-01T07:07:13;100683.00;;;15.57;50.88
19112;BME280;9688;51.906;8.376;2023-05-01T07:09:58;100682.09;;;15.73;50.93
19112;BME280;9688;51.906;8.376;2023-05-01T07:12:44;100678.47;;;16.04;50.29
19112;BME280;9688;51.906;8.376;2023-05-01T07:15:29;100679.94;;;16.38;49.36
19112;BME280;9688;51.906;8.376;2023-05-01T07:18:14;100682.88;;;16.48;49.16
19112;BME280;9688;51.906;8.376;2023-05-01T07:21:00;100675.00;;;16.46;49.34
19112;BME280;9688;51.906;8.376;2023-05-01T07:23:47;100674.31;;;16.43;49.61
19112;BME280;9688;51.906;8.376;2023-05-01T07:26:32;100681.75;;;16.52;49.84
19112;BME280;9688;51.906;8.376;2023-05-01T07:29:18;100677.06;;;16.70;49.35
19112;BME280;9688;51.906;8.376;2023-05-01T07:32:04;100669.25;;;16.81;49.37
19112;BME280;9688;51.906;8.376;2023-05-01T07:34:50;100669.19;;;16.83;49.85
19112;BME280;9688;51.906;8.376;2023-05-01T07:37:35;100664.56;;;16.99;48.70
19112;BME280;9688;51.906;8.376;2023-05-01T07:40:22;100659.19;;;17.13;49.29
19112;BME280;9688;51.906;8.376;2023-05-01T07:43:08;100656.69;;;17.37;48.84
19112;BME280;9688;51.906;8.376;2023-05-01T07:45:55;100654.66;;;17.68;47.86
19112;BME280;9688;51.906;8.376;2023-05-01T07:48:42;100660.19;;;17.92;47.08
19112;BME280;9688;51.906;8.376;2023-05-01T07:51:27;100647.88;;;18.02;47.03
19112;BME280;9688;51.906;8.376;2023-05-01T07:54:12;100651.53;;;18.14;46.57
19112;BME280;9688;51.906;8.376;2023-05-01T07:57:01;100645.41;;;18.12;46.86
19112;BME280;9688;51.906;8.376;2023-05-01T07:59:47;100654.53;;;18.10;47.65
19112;BME280;9688;51.906;8.376;2023-05-01T08:02:33;100648.00;;;18.26;47.31
19112;BME280;9688;51.906;8.376;2023-05-01T08:05:19;100649.06;;;18.49;46.88
19112;BME280;9688;51.906;8.376;2023-05-01T08:08:05;100653.19;;;18.66;46.38
19112;BME280;9688;51.906;8.376;2023-05-01T08:10:51;100647.94;;;18.78;45.92
19112;BME280;9688;51.906;8.376;2023-05-01T08:13:37;100644.94;;;18.82;45.71
19112;BME280;9688;51.906;8.376;2023-05-01T08:16:23;100636.13;;;18.93;45.66
19112;BME280;9688;51.906;8.376;2023-05-01T08:19:09;100646.91;;;19.04;45.51
19112;BME280;9688;51.906;8.376;2023-05-01T08:21:54;100643.72;;;19.23;44.90
19112;BME280;9688;51.906;8.376;2023-05-01T08:24:40;100641.38;;;19.43;44.49
19112;BME280;9688;51.906;8.376;2023-05-01T08:27:26;100642.91;;;19.58;44.33
19112;BME280;9688;51.906;8.376;2023-05-01T08:30:13;100638.47;;;19.81;43.93
19112;BME280;9688;51.906;8.376;2023-05-01T08:32:59;100634.72;;;19.95;43.72
19112;BME280;9688;51.906;8.376;2023-05-01T08:35:44;100628.69;;;20.15;43.43
19112;BME280;9688;51.906;8.376;2023-05-01T08:38:31;100640.81;;;20.55;42.64
19112;BME280;9688;51.906;8.376;2023-05-01T08:41:20;100633.31;;;20.81;42.28
19112;BME280;9688;51.906;8.376;2023-05-01T08:44:07;100639.78;;;20.89;42.34
19112;BME280;9688;51.906;8.376;2023-05-01T08:47:06;100633.66;;;20.99;42.28
19112;BME280;9688;51.906;8.376;2023-05-01T08:49:56;100633.03;;;21.06;42.49
19112;BME280;9688;51.906;8.376;2023-05-01T08:52:42;100632.31;;;21.04;42.35
19112;BME280;9688;51.906;8.376;2023-05-01T08:55:29;100627.19;;;21.01;42.11
19112;BME280;9688;51.906;8.376;2023-05-01T08:58:16;100622.09;;;20.87;42.42
19112;BME280;9688;51.906;8.376;2023-05-01T09:01:03;100625.91;;;20.62;42.74
19112;BME280;9688;51.906;8.376;2023-05-01T09:03:51;100624.53;;;20.45;42.96
19112;BME280;9688;51.906;8.376;2023-05-01T09:06:38;100624.06;;;20.40;43.23
19112;BME280;9688;51.906;8.376;2023-05-01T09:09:24;100628.44;;;20.41;42.82
19112;BME280;9688;51.906;8.376;2023-05-01T09:12:14;100619.41;;;20.31;43.31
19112;BME280;9688;51.906;8.376;2023-05-01T09:15:03;100613.44;;;20.16;43.63
19112;BME280;9688;51.906;8.376;2023-05-01T09:17:50;100612.94;;;20.22;43.53
19112;BME280;9688;51.906;8.376;2023-05-01T09:20:37;100611.34;;;20.19;43.64
19112;BME280;9688;51.906;8.376;2023-05-01T09:23:23;100618.06;;;20.25;43.55
19112;BME280;9688;51.906;8.376;2023-05-01T09:26:09;100608.16;;;20.37;43.86
19112;BME280;9688;51.906;8.376;2023-05-01T09:28:55;100616.97;;;20.50;43.56
19112;BME280;9688;51.906;8.376;2023-05-01T09:31:41;100608.31;;;20.69;43.41
19112;BME280;9688;51.906;8.376;2023-05-01T09:34:27;100604.84;;;20.89;42.79
19112;BME280;9688;51.906;8.376;2023-05-01T09:37:24;100598.88;;;20.86;42.58
19112;BME280;9688;51.906;8.376;2023-05-01T09:40:13;100594.75;;;20.82;42.51
19112;BME280;9688;51.906;8.376;2023-05-01T09:43:00;100588.00;;;20.87;43.08
19112;BME280;9688;51.906;8.376;2023-05-01T09:45:59;100593.47;;;20.97;42.46
19112;BME280;9688;51.906;8.376;2023-05-01T09:48:52;100588.72;;;21.01;42.29
19112;BME280;9688;51.906;8.376;2023-05-01T09:51:38;100595.19;;;20.98;42.20
19112;BME280;9688;51.906;8.376;2023-05-01T09:54:26;100587.38;;;20.95;42.26
19112;BME280;9688;51.906;8.376;2023-05-01T09:57:12;100595.56;;;20.93;42.11
19112;BME280;9688;51.906;8.376;2023-05-01T10:00:06;100583.22;;;20.91;41.99
19112;BME280;9688;51.906;8.376;2023-05-01T10:02:53;100575.91;;;20.93;42.25
19112;BME280;9688;51.906;8.376;2023-05-01T10:05:42;100588.34;;;20.94;42.23
19112;BME280;9688;51.906;8.376;2023-05-01T10:08:43;100575.63;;;20.96;42.36
19112;BME280;9688;51.906;8.376;2023-05-01T10:11:46;100577.97;;;21.01;42.10
19112;BME280;9688;51.906;8.376;2023-05-01T10:14:32;100577.56;;;21.05;41.94
19112;BME280;9688;51.906;8.376;2023-05-01T10:17:22;100579.41;;;21.05;41.46
19112;BME280;9688;51.906;8.376;2023-05-01T10:20:11;100576.13;;;21.01;41.11
19112;BME280;9688;51.906;8.376;2023-05-01T10:23:00;100568.16;;;21.00;40.96
19112;BME280;9688;51.906;8.376;2023-05-01T10:25:48;100576.50;;;20.97;40.82
19112;BME280;9688;51.906;8.376;2023-05-01T10:28:38;100576.50;;;20.97;41.02
19112;BME280;9688;51.906;8.376;2023-05-01T10:31:24;100584.78;;;21.05;41.03
19112;BME280;9688;51.906;8.376;2023-05-01T10:34:15;100574.53;;;20.99;40.81
19112;BME280;9688;51.906;8.376;2023-05-01T10:37:08;100576.75;;;20.93;40.60
19112;BME280;9688;51.906;8.376;2023-05-01T10:39:58;100580.66;;;20.89;40.47
19112;BME280;9688;51.906;8.376;2023-05-01T10:43:15;100564.66;;;20.88;40.49
19112;BME280;9688;51.906;8.376;2023-05-01T10:46:29;100571.00;;;20.98;40.71
19112;BME280;9688;51.906;8.376;2023-05-01T10:49:17;100556.16;;;21.15;40.16
19112;BME280;9688;51.906;8.376;2023-05-01T10:52:05;100547.19;;;21.26;40.14
19112;BME280;9688;51.906;8.376;2023-05-01T10:54:50;100549.19;;;21.33;40.25
19112;BME280;9688;51.906;8.376;2023-05-01T10:57:43;100543.03;;;21.54;40.11
19112;BME280;9688;51.906;8.376;2023-05-01T11:00:29;100543.44;;;21.80;40.02
19112;BME280;9688;51.906;8.376;2023-05-01T11:03:35;100528.22;;;21.90;39.56
19112;BME280;9688;51.906;8.376;2023-05-01T11:06:24;100526.16;;;22.03;39.71
19112;BME280;9688;51.906;8.376;2023-05-01T11:09:37;100525.53;;;22.00;39.80
19112;BME280;9688;51.906;8.376;2023-05-01T11:12:49;100523.72;;;22.00;39.58
19112;BME280;9688;51.906;8.376;2023-05-01T11:15:39;100520.50;;;22.07;39.61
19112;BME280;9688;51.906;8.376;2023-05-01T11:18:47;100521.91;;;22.11;38.96
19112;BME280;9688;51.906;8.376;2023-05-01T11:21:34;100520.06;;;22.11;38.78
19112;BME280;9688;51.906;8.376;2023-05-01T11:24:30;100520.88;;;22.23;38.46
19112;BME280;9688;51.906;8.376;2023-05-01T11:27:16;100520.94;;;22.52;38.10
19112;BME280;9688;51.906;8.376;2023-05-01T11:30:17;100519.69;;;22.66;37.76
19112;BME280;9688;51.906;8.376;2023-05-01T11:33:03;100516.88;;;22.67;37.48
19112;BME280;9688;51.906;8.376;2023-05-01T11:35:57;100519.56;;;22.77;37.67
19112;BME280;9688;51.906;8.376;2023-05-01T11:38:49;100506.78;;;22.89;37.69
19112;BME280;9688;51.906;8.376;2023-05-01T11:41:35;100524.03;;;22.98;37.43
19112;BME280;9688;51.906;8.376;2023-05-01T11:44:20;100508.47;;;22.80;37.23
19112;BME280;9688;51.906;8.376;2023-05-01T11:47:07;100512.72;;;22.63;37.91
19112;BME280;9688;51.906;8.376;2023-05-01T11:49:55;100514.53;;;22.43;37.73
19112;BME280;9688;51.906;8.376;2023-05-01T11:52:44;100506.47;;;22.43;37.71
19112;BME280;9688;51.906;8.376;2023-05-01T11:55:33;100504.88;;;22.41;37.80
19112;BME280;9688;51.906;8.376;2023-05-01T11:58:35;100504.75;;;22.42;37.43
19112;BME280;9688;51.906;8.376;2023-05-01T12:01:33;100504.16;;;22.29;37.60
19112;BME280;9688;51.906;8.376;2023-05-01T12:04:25;100493.66;;;22.36;37.34
19112;BME280;9688;51.906;8.376;2023-05-01T12:07:19;100492.69;;;22.37;37.13
19112;BME280;9688;51.906;8.376;2023-05-01T12:10:07;100497.50;;;22.33;37.04
19112;BME280;9688;51.906;8.376;2023-05-01T12:12:53;100498.22;;;22.35;36.99
19112;BME280;9688;51.906;8.376;2023-05-01T12:15:42;100488.19;;;22.57;36.54
19112;BME280;9688;51.906;8.376;2023-05-01T12:18:29;100486.34;;;22.57;36.71
19112;BME280;9688;51.906;8.376;2023-05-01T12:21:16;100489.06;;;22.67;36.70
19112;BME280;9688;51.906;8.376;2023-05-01T12:24:09;100481.81;;;22.77;36.63
19112;BME280;9688;51.906;8.376;2023-05-01T12:27:00;100478.84;;;22.80;36.71
19112;BME280;9688;51.906;8.376;2023-05-01T12:29:48;100483.53;;;22.78;36.73
19112;BME280;9688;51.906;8.376;2023-05-01T12:32:34;100473.88;;;22.76;36.56
19112;BME280;9688;51.906;8.376;2023-05-01T12:35:28;100480.13;;;22.76;36.30
19112;BME280;9688;51.906;8.376;2023-05-01T12:38:15;100476.56;;;22.85;36.32
19112;BME280;9688;51.906;8.376;2023-05-01T12:41:01;100481.56;;;23.00;36.23
19112;BME280;9688;51.906;8.376;2023-05-01T12:43:51;100474.03;;;23.13;35.78
19112;BME280;9688;51.906;8.376;2023-05-01T12:46:37;100471.38;;;23.03;35.82
19112;BME280;9688;51.906;8.376;2023-05-01T12:49:23;100472.06;;;23.15;35.75
19112;BME280;9688;51.906;8.376;2023-05-01T12:52:09;100469.44;;;23.43;35.18
19112;BME280;9688;51.906;8.376;2023-05-01T12:55:01;100468.25;;;23.55;34.93
19112;BME280;9688;51.906;8.376;2023-05-01T12:57:51;100469.81;;;23.67;34.49
19112;BME280;9688;51.906;8.376;2023-05-01T13:00:43;100467.97;;;23.58;34.88
19112;BME280;9688;51.906;8.376;2023-05-01T13:03:32;100459.75;;;23.59;34.87
19112;BME280;9688;51.906;8.376;2023-05-01T13:06:18;100462.56;;;23.58;34.37
19112;BME280;9688;51.906;8.376;2023-05-01T13:09:07;100461.72;;;23.57;33.84
19112;BME280;9688;51.906;8.376;2023-05-01T13:11:58;100465.38;;;23.66;33.79
19112;BME280;9688;51.906;8.376;2023-05-01T13:14:46;100463.84;;;23.73;33.83
19112;BME280;9688;51.906;8.376;2023-05-01T13:17:33;100461.09;;;23.83;33.55
19112;BME280;9688;51.906;8.376;2023-05-01T13:20:25;100464.28;;;24.06;33.08
19112;BME280;9688;51.906;8.376;2023-05-01T13:23:14;100465.03;;;24.16;32.65
19112;BME280;9688;51.906;8.376;2023-05-01T13:26:00;100469.00;;;24.22;32.08
19112;BME280;9688;51.906;8.376;2023-05-01T13:28:49;100460.97;;;24.30;31.58
19112;BME280;9688;51.906;8.376;2023-05-01T13:31:35;100461.06;;;24.38;31.22
19112;BME280;9688;51.906;8.376;2023-05-01T13:34:24;100464.56;;;24.31;30.71
19112;BME280;9688;51.906;8.376;2023-05-01T13:37:12;100455.47;;;24.22;30.59
19112;BME280;9688;51.906;8.376;2023-05-01T13:39:58;100451.94;;;23.94;31.15
19112;BME280;9688;51.906;8.376;2023-05-01T13:42:45;100456.78;;;23.53;31.23
19112;BME280;9688;51.906;8.376;2023-05-01T13:45:33;100447.50;;;23.18;31.89
19112;BME280;9688;51.906;8.376;2023-05-01T13:48:18;100444.53;;;23.11;32.12
19112;BME280;9688;51.906;8.376;2023-05-01T13:51:06;100442.84;;;23.01;32.43
19112;BME280;9688;51.906;8.376;2023-05-01T13:53:52;100446.06;;;22.94;32.40
19112;BME280;9688;51.906;8.376;2023-05-01T13:56:39;100440.97;;;22.82;32.59
19112;BME280;9688;51.906;8.376;2023-05-01T13:59:32;100437.13;;;22.84;32.46
19112;BME280;9688;51.906;8.376;2023-05-01T14:02:25;100431.44;;;22.78;32.09
19112;BME280;9688;51.906;8.376;2023-05-01T14:05:11;100440.13;;;22.81;32.50
19112;BME280;9688;51.906;8.376;2023-05-01T14:07:58;100432.72;;;22.93;32.80
19112;BME280;9688;51.906;8.376;2023-05-01T14:10:45;100437.84;;;22.86;32.94
19112;BME280;9688;51.906;8.376;2023-05-01T14:13:31;100432.19;;;22.89;32.69
19112;BME280;9688;51.906;8.376;2023-05-01T14:16:22;100439.53;;;22.87;33.04
19112;BME280;9688;51.906;8.376;2023-05-01T14:19:07;100437.13;;;22.94;33.07
19112;BME280;9688;51.906;8.376;2023-05-01T14:21:53;100429.34;;;23.01;33.16
19112;BME280;9688;51.906;8.376;2023-05-01T14:24:40;100429.03;;;23.13;32.87
19112;BME280;9688;51.906;8.376;2023-05-01T14:27:26;100433.88;;;23.20;32.92
19112;BME280;9688;51.906;8.376;2023-05-01T14:30:22;100434.69;;;23.30;32.99
19112;BME280;9688;51.906;8.376;2023-05-01T14:33:10;100433.41;;;23.34;32.81
19112;BME280;9688;51.906;8.376;2023-05-01T14:35:57;100435.25;;;23.33;32.93
19112;BME280;9688;51.906;8.376;2023-05-01T14:38:42;100434.38;;;23.33;32.58
19112;BME280;9688;51.906;8.376;2023-05-01T14:41:33;100431.38;;;23.36;32.59
19112;BME280;9688;51.906;8.376;2023-05-01T14:44:25;100424.84;;;23.48;32.03
19112;BME280;9688;51.906;8.376;2023-05-01T14:47:12;100430.34;;;23.56;32.11
19112;BME280;9688;51.906;8.376;2023-05-01T14:49:59;100421.59;;;23.45;32.08
19112;BME280;9688;51.906;8.376;2023-05-01T14:52:44;100425.75;;;23.29;31.88
19112;BME280;9688;51.906;8.376;2023-05-01T14:55:30;100417.94;;;23.16;32.23
19112;BME280;9688;51.906;8.376;2023-05-01T14:58:19;100420.38;;;23.10;31.97